Latest Weather Observations for Fitzroy Crossing

IDW60801

Issued at 4:32 pm WST Saturday 23 May 2015 (issued every 30 minutes, with the page automatically refreshed every 10 minutes)

About weather observations | Map of weather stations | Latest weather observations for WA | Other Formats
Station Details ID: 003093 Name: FITZROY CROSSING AERO Lat: -18.18 Lon: 125.56 Height: 114.5 m
Data from the previous 72 hours. | See also: Recent months at Fitzroy Crossing
Date/Time
WST
Temp
°C
App
Temp
°C
Dew
Point
Rel
Hum
%
Delta-T
°C
Wind Press
QNH
hPa
Press
MSL
hPa
Rain
since 9 am
mm
Dir
 
Spd
km/h
Gust
km/h
Spd
kts
Gust
kts
23/04:30pm 32.4 30.7 9.9 25 12.9 ESE 9 11 5 6 1014.1 1013.5 0.0
23/04:00pm 32.9 31.9 10.3 25 13.1 ESE 6 11 3 6 1014.2 1013.6 0.0
23/03:30pm 33.2 31.9 9.9 24 13.4 NNE 7 15 4 8 1014.0 1013.4 0.0
23/03:00pm 33.3 31.3 10.0 24 13.4 E 11 17 6 9 1013.9 1013.3 0.0
23/02:30pm 33.4 31.4 10.1 24 13.5 ENE 11 19 6 10 1014.0 1013.4 0.0
23/02:00pm 33.3 30.9 10.0 24 13.4 E 13 20 7 11 1014.0 1013.4 0.0
23/01:30pm 33.2 30.8 9.9 24 13.4 NE 13 20 7 11 1014.3 1013.7 0.0
23/01:00pm 33.2 31.1 9.9 24 13.4 NNE 11 20 6 11 1014.7 1014.1 0.0
23/12:30pm 32.3 29.7 9.2 24 13.1 NE 13 24 7 13 1015.3 1014.7 0.0
23/12:00pm 32.9 30.6 10.3 25 13.1 NNE 13 20 7 11 1015.8 1015.2 0.0
23/11:30am 31.7 28.5 9.8 26 12.5 ENE 17 24 9 13 1016.4 1015.8 0.0
23/11:00am 30.2 26.7 8.6 26 12.0 NE 17 28 9 15 1016.9 1016.3 0.0
23/10:30am 29.8 26.3 8.8 27 11.7 NE 17 26 9 14 1017.3 1016.8 0.0
23/10:00am 29.2 25.1 8.8 28 11.3 NE 20 28 11 15 1017.7 1017.2 0.0
23/09:30am 28.5 24.0 8.7 29 10.9 ENE 22 32 12 17 1018.0 1017.5 0.0
23/09:00am 27.9 23.9 9.2 31 10.4 NE 20 28 11 15 1018.3 1017.8 0.0
23/08:30am 26.9 22.8 8.8 32 9.9 ENE 20 28 11 15 1018.6 1018.1 0.0
23/08:00am 25.4 21.2 8.4 34 9.2 E 20 28 11 15 1018.5 1018.0 0.0
23/07:30am 24.3 20.0 7.9 35 8.7 ENE 20 32 11 17 1018.4 1017.9 0.0
23/07:00am 23.6 18.9 7.7 36 8.4 ENE 22 32 12 17 1018.2 1017.7 0.0
23/06:30am 22.9 18.6 7.0 36 8.3 E 19 28 10 15 1017.8 1017.3 0.0
23/06:00am 22.4 18.5 7.0 37 8.0 E 17 26 9 14 1017.6 1017.1 0.0
23/05:30am 22.5 18.6 7.1 37 8.0 E 17 24 9 13 1017.1 1016.5 0.0
23/05:00am 22.8 19.0 7.4 37 8.0 ENE 17 22 9 12 1016.8 1016.2 0.0
23/04:30am 22.9 18.7 7.4 37 8.1 E 19 26 10 14 1016.5 1015.9 0.0
23/04:00am 22.6 18.7 7.2 37 8.0 E 17 20 9 11 1016.5 1015.9 0.0
23/03:30am 22.0 19.1 6.3 36 8.0 E 11 15 6 8 1016.5 1015.9 0.0
23/03:00am 22.0 19.7 5.8 35 8.2 ENE 7 9 4 5 1016.4 1015.8 0.0
23/02:30am 22.8 20.6 6.1 34 8.5 E 7 9 4 5 1016.5 1015.9 0.0
23/02:00am 23.7 21.3 6.9 34 8.7 E 9 15 5 8 1016.4 1015.8 0.0
23/01:30am 24.6 21.6 7.7 34 9.0 E 13 20 7 11 1016.4 1015.8 0.0
23/01:00am 24.6 21.6 7.7 34 9.0 E 13 17 7 9 1016.4 1015.8 0.0
23/12:30am 24.2 21.9 7.4 34 8.9 ESE 9 13 5 7 1016.6 1016.0 0.0
23/12:00am 24.6 22.3 7.3 33 9.1 ESE 9 13 5 7 1016.4 1015.8 0.0
 
Date/Time
WST
Temp
°C
App
Temp
°C
Dew
Point
Rel
Hum
%
Delta-T
°C
Wind Press
QNH
hPa
Press
MSL
hPa
Rain
since 9 am
mm
Dir
 
Spd
km/h
Gust
km/h
Spd
kts
Gust
kts
22/11:30pm 24.7 22.4 7.4 33 9.1 ESE 9 13 5 7 1016.3 1015.7 0.0
22/11:00pm 25.4 22.7 7.5 32 9.5 SE 11 13 6 7 1016.5 1015.9 0.0
22/10:30pm 26.2 23.6 7.7 31 9.9 ESE 11 15 6 8 1016.5 1015.9 0.0
22/10:00pm 26.8 23.8 7.8 30 10.2 ESE 13 17 7 9 1016.5 1015.9 0.0
22/09:30pm 27.3 24.0 8.2 30 10.4 ESE 15 20 8 11 1016.5 1015.9 0.0
22/09:00pm 27.4 23.8 8.3 30 10.4 ESE 17 22 9 12 1016.3 1015.7 0.0
22/08:30pm 28.1 24.3 8.9 30 10.6 ESE 19 28 10 15 1016.4 1015.8 0.0
22/08:00pm 28.5 25.2 9.7 31 10.5 ESE 17 22 9 12 1016.4 1015.8 0.0
22/07:30pm 28.1 25.5 9.4 31 10.4 SE 13 17 7 9 1016.1 1015.5 0.0
22/07:00pm 27.9 25.3 9.2 31 10.4 SE 13 17 7 9 1015.7 1015.1 0.0
22/06:30pm 28.0 25.3 8.8 30 10.6 SE 13 15 7 8 1015.4 1014.8 0.0
22/06:00pm 28.5 26.0 8.2 28 11.1 SE 11 13 6 7 1015.0 1014.4 0.0
22/05:30pm 29.8 27.1 8.8 27 11.7 SE 13 15 7 8 1014.8 1014.2 0.0
22/05:00pm 31.2 28.8 8.8 25 12.5 SE 11 17 6 9 1014.5 1013.9 0.0
22/04:30pm 32.9 30.0 9.7 24 13.3 SE 15 20 8 11 1014.3 1013.7 0.0
22/04:00pm 33.8 31.5 10.4 24 13.6 ESE 13 17 7 9 1014.1 1013.5 0.0
22/03:30pm 34.2 32.0 10.7 24 13.7 SE 13 19 7 10 1014.0 1013.4 0.0
22/03:00pm 34.5 33.1 11.0 24 13.8 NE 9 15 5 8 1014.0 1013.4 0.0
22/02:30pm 34.3 32.5 10.8 24 13.8 E 11 17 6 9 1014.1 1013.5 0.0
22/02:00pm 34.5 32.2 11.6 25 13.6 ESE 15 22 8 12 1014.3 1013.7 0.0
22/01:30pm 34.0 31.5 11.2 25 13.4 E 15 26 8 14 1014.6 1014.0 0.0
22/01:00pm 33.7 31.3 11.5 26 13.1 ESE 15 22 8 12 1014.8 1014.2 0.0
22/12:30pm 33.0 30.2 11.5 27 12.7 ESE 17 24 9 13 1015.3 1014.7 0.0
22/12:00pm 33.2 31.0 12.2 28 12.5 ENE 15 28 8 15 1015.9 1015.3 0.0
22/11:30am 32.1 28.9 11.8 29 12.0 E 20 26 11 14 1016.4 1015.8 0.0
22/11:00am 31.4 27.8 11.7 29 11.6 ENE 22 35 12 19 1017.0 1016.4 0.0
22/10:30am 31.0 27.4 11.9 31 11.2 ENE 22 30 12 16 1017.3 1016.8 0.0
22/10:00am 29.7 25.3 11.7 33 10.5 E 26 33 14 18 1017.8 1017.3 0.0
22/09:30am 29.6 25.8 12.5 35 10.1 ENE 24 35 13 19 1018.1 1017.6 0.0
22/09:00am 28.6 24.8 12.5 37 9.4 E 24 33 13 18 1018.2 1017.7 0.0
22/08:30am 27.1 22.9 12.3 39 8.6 E 26 35 14 19 1018.0 1017.5 0.0
22/08:00am 26.0 23.1 12.8 44 7.7 E 20 28 11 15 1018.0 1017.5 0.0
22/07:30am 23.9 22.0 11.9 47 6.8 ESE 13 17 7 9 1017.9 1017.4 0.0
22/07:00am 21.5 19.5 10.3 49 6.1 SE 11 15 6 8 1017.9 1017.4 0.0
22/06:30am 19.7 17.4 9.0 50 5.7 SE 11 13 6 7 1017.5 1017.0 0.0
22/06:00am 17.4 15.2 6.3 48 5.5 E 7 9 4 5 1017.0 1016.4 0.0
22/05:30am 16.4 14.0 5.1 47 5.4 NNW 7 9 4 5 1016.6 1016.0 0.0
22/05:00am 17.1 14.9 5.4 46 5.7 NE 6 7 3 4 1016.2 1015.6 0.0
22/04:30am 17.4 16.3 5.0 44 6.0 CALM 0 0 0 0 1016.2 1015.6 0.0
22/04:00am 17.7 15.4 5.0 43 6.1 ENE 6 9 3 5 1015.8 1015.2 0.0
22/03:30am 19.3 17.0 5.7 41 6.7 SE 7 9 4 5 1016.0 1015.4 0.0
22/03:00am 19.3 16.6 5.4 40 6.8 S 9 11 5 6 1015.9 1015.3 0.0
22/02:30am 20.2 17.5 5.8 39 7.2 SSE 9 13 5 7 1015.6 1015.0 0.0
22/02:00am 20.5 17.3 5.3 37 7.5 S 11 13 6 7 1015.8 1015.2 0.0
22/01:30am 20.1 16.8 4.6 36 7.5 SSW 11 13 6 7 1015.8 1015.2 0.0
22/01:00am 20.6 18.1 4.6 35 7.8 S 7 9 4 5 1015.8 1015.2 0.0
22/12:30am 21.0 18.1 4.6 34 8.0 SSW 9 13 5 7 1016.0 1015.4 0.0
22/12:00am 23.7 21.3 6.9 34 8.7 SE 9 11 5 6 1015.9 1015.3 0.0
 
Date/Time
WST
Temp
°C
App
Temp
°C
Dew
Point
Rel
Hum
%
Delta-T
°C
Wind Press
QNH
hPa
Press
MSL
hPa
Rain
since 9 am
mm
Dir
 
Spd
km/h
Gust
km/h
Spd
kts
Gust
kts
21/11:30pm 23.2 20.3 6.5 34 8.6 ESE 11 15 6 8 1015.8 1015.2 0.0
21/11:00pm 21.3 18.4 4.4 33 8.3 SE 9 11 5 6 1016.0 1015.4 0.0
21/10:30pm 22.1 19.7 4.2 31 8.8 SE 6 9 3 5 1016.0 1015.4 0.0
21/10:00pm 23.2 20.3 4.7 30 9.2 SSE 9 9 5 5 1016.0 1015.4 0.0
21/09:30pm 23.0 20.4 4.0 29 9.3 SSE 7 9 4 5 1016.0 1015.4 0.0
21/09:00pm 24.7 21.5 5.0 28 10.0 S 11 13 6 7 1016.1 1015.5 0.0
21/08:30pm 25.4 21.8 5.1 27 10.3 S 13 15 7 8 1016.2 1015.6 0.0
21/08:00pm 25.8 22.6 4.9 26 10.6 SSE 11 11 6 6 1016.1 1015.5 0.0
21/07:30pm 25.8 24.5 4.3 25 10.8 CALM 0 0 0 0 1016.0 1015.4 0.0
21/07:00pm 26.0 24.6 3.3 23 11.2 CALM 0 0 0 0 1015.9 1015.3 0.0
21/06:30pm 28.0 25.6 4.3 22 12.1 ESE 6 7 3 4 1015.6 1015.0 0.0
21/06:00pm 28.9 26.2 3.7 20 12.8 ESE 7 9 4 5 1015.3 1014.7 0.0
21/05:30pm 29.9 27.4 3.8 19 13.4 E 6 7 3 4 1014.9 1014.3 0.0
21/05:00pm 31.9 29.4 3.8 17 14.6 ESE 6 7 3 4 1014.6 1014.0 0.0
21/04:30pm 33.8 31.4 4.5 16 15.5 E 6 7 3 4 1014.4 1013.8 0.0
21/04:00pm 34.4 31.2 5.0 16 15.7 E 11 17 6 9 1014.1 1013.5 0.0
21/03:30pm 34.7 31.1 5.2 16 15.9 SE 13 19 7 10 1013.9 1013.3 0.0
21/03:00pm 34.7 31.1 5.2 16 15.9 SE 13 20 7 11 1013.9 1013.3 0.0
21/02:30pm 35.5 32.5 5.8 16 16.2 E 11 19 6 10 1013.9 1013.3 0.0
21/02:00pm 35.0 31.5 5.4 16 16.0 ESE 13 22 7 12 1014.0 1013.4 0.0
21/01:30pm 35.2 31.4 5.6 16 16.1 ESE 15 26 8 14 1014.3 1013.7 0.0
21/01:00pm 35.3 31.7 6.6 17 15.8 E 15 20 8 11 1014.6 1014.0 0.0
21/12:30pm 34.4 31.2 6.7 18 15.2 E 13 22 7 12 1015.2 1014.6 0.0
21/12:00pm 34.0 30.9 7.1 19 14.9 ENE 13 22 7 12 1015.8 1015.2 0.0
21/11:30am 33.7 30.5 8.3 21 14.3 E 15 22 8 12 1016.5 1015.9 0.0
21/11:00am 32.4 29.9 8.0 22 13.6 ESE 11 22 6 12 1016.9 1016.3 0.0
21/10:30am 31.6 29.2 8.6 24 12.9 E 11 20 6 11 1017.4 1016.9 0.0
21/10:00am 30.4 27.3 8.7 26 12.1 E 15 20 8 11 1017.9 1017.4 0.0
21/09:30am 29.2 25.7 8.8 28 11.3 E 17 24 9 13 1018.4 1017.9 0.0
21/09:00am 28.8 26.0 10.0 31 10.6 E 15 20 8 11 1018.4 1017.9 0.0
21/08:30am 27.0 24.9 9.8 34 9.6 ESE 11 17 6 9 1018.4 1017.9 0.0
21/08:00am 24.6 23.2 9.0 37 8.5 SE 6 7 3 4 1018.4 1017.9 0.0
21/07:30am 22.4 19.8 7.8 39 7.7 S 11 15 6 8 1018.4 1017.9 0.0
21/07:00am 20.6 18.6 7.2 42 6.9 S 7 13 4 7 1018.1 1017.6 0.0
21/06:30am 18.2 17.1 5.1 42 6.4 CALM 0 4 0 2 1017.8 1017.3 0.0
21/06:00am 16.8 15.4 3.5 41 6.2 CALM 0 0 0 0 1017.3 1016.8 0.0
21/05:30am 17.5 16.1 3.8 40 6.4 CALM 0 0 0 0 1016.8 1016.2 0.0
21/05:00am 17.8 15.3 4.0 40 6.5 SSE 6 7 3 4 1016.7 1016.1 0.0
21/04:30am 19.0 15.8 5.1 40 6.8 SSE 11 13 6 7 1016.6 1016.0 0.0
21/04:00am 19.0 16.3 5.5 41 6.6 S 9 13 5 7 1016.4 1015.8 0.0
21/03:30am 19.2 15.8 6.0 42 6.6 S 13 15 7 8 1016.2 1015.6 0.0
21/03:00am 19.3 16.7 6.1 42 6.6 S 9 11 5 6 1016.1 1015.5 0.0
21/02:30am 20.0 17.5 6.7 42 6.7 S 9 11 5 6 1015.9 1015.3 0.0
21/02:00am 20.5 18.1 7.2 42 6.8 S 9 13 5 7 1015.9 1015.3 0.0
21/01:30am 19.8 17.2 6.2 41 6.8 SSW 9 13 5 7 1015.8 1015.2 0.0
21/01:00am 21.4 19.4 6.9 39 7.4 S 7 9 4 5 1015.8 1015.2 0.0
21/12:30am 21.7 19.3 6.8 38 7.6 SSW 9 9 5 5 1016.1 1015.5 0.0
21/12:00am 23.2 20.6 7.7 37 8.2 S 11 13 6 7 1016.3 1015.7 0.0
 
Date/Time
WST
Temp
°C
App
Temp
°C
Dew
Point
Rel
Hum
%
Delta-T
°C
Wind Press
QNH
hPa
Press
MSL
hPa
Rain
since 9 am
mm
Dir
 
Spd
km/h
Gust
km/h
Spd
kts
Gust
kts
20/11:30pm 24.0 21.2 8.4 37 8.4 S 13 15 7 8 1016.4 1015.8 0.0
20/11:00pm 23.1 20.1 7.6 37 8.1 SSW 13 15 7 8 1016.8 1016.2 0.0
20/10:30pm 21.8 20.4 5.7 35 8.1 SSW 2 9 1 5 1016.9 1016.3 0.0
20/10:00pm 22.2 20.1 5.6 34 8.3 NNW 6 6 3 3 1016.9 1016.3 0.0
20/09:30pm 24.8 22.9 7.4 33 9.2 S 7 13 4 7 1016.9 1016.3 0.0
20/09:00pm 25.0 24.2 6.7 31 9.6 CALM 0 0 0 0 1016.9 1016.3 0.0
20/08:30pm 25.9 25.2 7.0 30 10.0 CALM 0 0 0 0 1016.9 1016.3 0.0
20/08:00pm 26.0 24.7 6.1 28 10.3 NW 2 6 1 3 1016.8 1016.2 0.0
20/07:30pm 27.4 25.5 6.8 27 10.9 WNW 6 7 3 4 1016.3 1015.7 0.0
20/07:00pm 26.8 24.7 5.7 26 10.9 NNW 6 7 3 4 1016.1 1015.5 0.0
20/06:30pm 26.7 24.7 4.5 24 11.3 NW 4 7 2 4 1015.7 1015.1 0.0
20/06:00pm 27.2 24.6 4.3 23 11.6 SW 7 9 4 5 1015.3 1014.7 0.0
20/05:30pm 30.2 27.5 5.5 21 13.0 S 9 11 5 6 1014.8 1014.2 0.0
20/05:00pm 31.6 29.0 5.9 20 13.8 S 9 9 5 5 1014.5 1013.9 0.0

Other Formats:

Comma delimited format used in spreadsheet applications
http://www.bom.gov.au/fwo/IDW60801/IDW60801.94206.axf

JavaScript Object Notation format (JSON) in row-major order
http://www.bom.gov.au/fwo/IDW60801/IDW60801.94206.json